sensor_id;sensor_type;location;lat;lon;timestamp;pressure;altitude;pressure_sealevel;temperature;humidity
77871;BME280;67067;46.850;7.578;2023-04-21T00:00:23;94824.00;;;1.18;57.83
77871;BME280;67067;46.850;7.578;2023-04-21T00:01:25;94820.00;;;1.16;57.76
77871;BME280;67067;46.850;7.578;2023-04-21T00:02:28;94821.59;;;1.10;57.87
77871;BME280;67067;46.850;7.578;2023-04-21T00:03:36;94818.19;;;1.03;57.60
77871;BME280;67067;46.850;7.578;2023-04-21T00:04:41;94809.38;;;1.04;57.68
77871;BME280;67067;46.850;7.578;2023-04-21T00:05:46;94816.19;;;1.05;57.65
77871;BME280;67067;46.850;7.578;2023-04-21T00:06:48;94817.19;;;1.04;57.78
77871;BME280;67067;46.850;7.578;2023-04-21T00:07:51;94812.75;;;1.04;57.90
77871;BME280;67067;46.850;7.578;2023-04-21T00:08:52;94818.19;;;1.03;57.96
77871;BME280;67067;46.850;7.578;2023-04-21T00:09:55;94809.56;;;1.02;57.83
77871;BME280;67067;46.850;7.578;2023-04-21T00:10:56;94817.19;;;1.04;57.89
77871;BME280;67067;46.850;7.578;2023-04-21T00:11:58;94813.97;;;1.02;57.64
77871;BME280;67067;46.850;7.578;2023-04-21T00:13:00;94809.56;;;1.02;57.61
77871;BME280;67067;46.850;7.578;2023-04-21T00:14:01;94803.97;;;0.99;57.47
77871;BME280;67067;46.850;7.578;2023-04-21T00:15:03;94804.56;;;0.87;57.77
77871;BME280;67067;46.850;7.578;2023-04-21T00:16:05;94802.38;;;0.84;57.95
77871;BME280;67067;46.850;7.578;2023-04-21T00:17:07;94799.53;;;0.86;57.94
77871;BME280;67067;46.850;7.578;2023-04-21T00:18:08;94796.94;;;0.86;57.85
77871;BME280;67067;46.850;7.578;2023-04-21T00:19:10;94803.13;;;0.78;58.38
77871;BME280;67067;46.850;7.578;2023-04-21T00:20:14;94802.31;;;0.71;58.58
77871;BME280;67067;46.850;7.578;2023-04-21T00:21:16;94804.53;;;0.74;58.41
77871;BME280;67067;46.850;7.578;2023-04-21T00:22:17;94800.94;;;0.75;58.62
77871;BME280;67067;46.850;7.578;2023-04-21T00:23:19;94808.34;;;0.78;58.44
77871;BME280;67067;46.850;7.578;2023-04-21T00:24:23;94800.94;;;0.75;58.72
77871;BME280;67067;46.850;7.578;2023-04-21T00:25:25;94801.16;;;0.80;58.67
77871;BME280;67067;46.850;7.578;2023-04-21T00:26:27;94804.78;;;0.79;58.88
77871;BME280;67067;46.850;7.578;2023-04-21T00:27:28;94801.97;;;0.87;58.52
77871;BME280;67067;46.850;7.578;2023-04-21T00:28:30;94805.16;;;0.89;58.45
77871;BME280;67067;46.850;7.578;2023-04-21T00:29:32;94804.94;;;0.91;58.71
77871;BME280;67067;46.850;7.578;2023-04-21T00:30:36;94806.38;;;0.93;58.83
77871;BME280;67067;46.850;7.578;2023-04-21T00:31:38;94799.94;;;0.96;58.68
77871;BME280;67067;46.850;7.578;2023-04-21T00:32:39;94803.94;;;0.92;58.66
77871;BME280;67067;46.850;7.578;2023-04-21T00:33:43;94796.94;;;0.99;58.74
77871;BME280;67067;46.850;7.578;2023-04-21T00:34:47;94797.94;;;1.05;58.47
77871;BME280;67067;46.850;7.578;2023-04-21T00:35:48;94792.91;;;1.10;58.23
77871;BME280;67067;46.850;7.578;2023-04-21T00:36:50;94793.94;;;1.09;58.76
77871;BME280;67067;46.850;7.578;2023-04-21T00:37:52;94789.09;;;1.19;58.33
77871;BME280;67067;46.850;7.578;2023-04-21T00:38:56;94787.91;;;1.22;58.27
77871;BME280;67067;46.850;7.578;2023-04-21T00:39:57;94789.28;;;1.25;58.18
77871;BME280;67067;46.850;7.578;2023-04-21T00:40:59;94776.06;;;1.19;58.60
77871;BME280;67067;46.850;7.578;2023-04-21T00:42:00;94782.28;;;1.18;58.88
77871;BME280;67067;46.850;7.578;2023-04-21T00:43:04;94791.50;;;1.28;58.68
77871;BME280;67067;46.850;7.578;2023-04-21T00:44:06;94781.47;;;1.31;58.58
77871;BME280;67067;46.850;7.578;2023-04-21T00:45:08;94787.06;;;1.35;58.63
77871;BME280;67067;46.850;7.578;2023-04-21T00:46:10;94781.03;;;1.41;58.41
77871;BME280;67067;46.850;7.578;2023-04-21T00:47:12;94778.63;;;1.46;58.45
77871;BME280;67067;46.850;7.578;2023-04-21T00:48:15;94779.81;;;1.50;58.50
77871;BME280;67067;46.850;7.578;2023-04-21T00:49:17;94781.81;;;1.55;58.17
77871;BME280;67067;46.850;7.578;2023-04-21T00:50:19;94785.22;;;1.56;58.24
77871;BME280;67067;46.850;7.578;2023-04-21T00:51:23;94785.00;;;1.57;58.15
77871;BME280;67067;46.850;7.578;2023-04-21T00:52:27;94781.78;;;1.62;58.21
77871;BME280;67067;46.850;7.578;2023-04-21T00:53:29;94786.38;;;1.66;58.29
77871;BME280;67067;46.850;7.578;2023-04-21T00:54:31;94788.56;;;1.70;58.13
77871;BME280;67067;46.850;7.578;2023-04-21T00:55:35;94791.38;;;1.75;58.04
77871;BME280;67067;46.850;7.578;2023-04-21T00:56:37;94785.38;;;1.74;58.31
77871;BME280;67067;46.850;7.578;2023-04-21T00:57:38;94785.53;;;1.79;58.12
77871;BME280;67067;46.850;7.578;2023-04-21T00:58:43;94782.53;;;1.83;58.05
77871;BME280;67067;46.850;7.578;2023-04-21T00:59:45;94779.50;;;1.86;58.01
77871;BME280;67067;46.850;7.578;2023-04-21T01:00:47;94776.47;;;1.89;57.79
77871;BME280;67067;46.850;7.578;2023-04-21T01:01:49;94773.03;;;1.95;57.76
77871;BME280;67067;46.850;7.578;2023-04-21T01:02:50;94781.66;;;2.02;57.67
77871;BME280;67067;46.850;7.578;2023-04-21T01:03:52;94771.03;;;2.04;57.48
77871;BME280;67067;46.850;7.578;2023-04-21T01:04:54;94777.19;;;2.09;57.43
77871;BME280;67067;46.850;7.578;2023-04-21T01:05:55;94782.03;;;2.13;57.48
77871;BME280;67067;46.850;7.578;2023-04-21T01:06:57;94779.19;;;2.14;57.34
77871;BME280;67067;46.850;7.578;2023-04-21T01:07:59;94778.00;;;2.17;57.43
77871;BME280;67067;46.850;7.578;2023-04-21T01:09:01;94777.34;;;2.21;57.31
77871;BME280;67067;46.850;7.578;2023-04-21T01:10:05;94781.97;;;2.26;57.21
77871;BME280;67067;46.850;7.578;2023-04-21T01:11:10;94779.34;;;2.26;56.99
77871;BME280;67067;46.850;7.578;2023-04-21T01:12:13;94776.94;;;2.24;57.07
77871;BME280;67067;46.850;7.578;2023-04-21T01:13:18;94785.16;;;2.28;57.13
77871;BME280;67067;46.850;7.578;2023-04-21T01:14:19;94777.91;;;2.30;57.07
77871;BME280;67067;46.850;7.578;2023-04-21T01:15:21;94778.75;;;2.24;57.03
77871;BME280;67067;46.850;7.578;2023-04-21T01:16:23;94781.16;;;2.26;57.24
77871;BME280;67067;46.850;7.578;2023-04-21T01:17:27;94777.91;;;2.30;57.14
77871;BME280;67067;46.850;7.578;2023-04-21T01:18:34;94786.34;;;2.32;57.30
77871;BME280;67067;46.850;7.578;2023-04-21T01:19:41;94780.91;;;2.34;57.20
77871;BME280;67067;46.850;7.578;2023-04-21T01:20:42;94779.09;;;2.34;57.08
77871;BME280;67067;46.850;7.578;2023-04-21T01:21:47;94774.88;;;2.33;57.41
77871;BME280;67067;46.850;7.578;2023-04-21T01:22:49;94781.47;;;2.36;57.30
77871;BME280;67067;46.850;7.578;2023-04-21T01:23:54;94779.13;;;2.28;57.01
77871;BME280;67067;46.850;7.578;2023-04-21T01:24:56;94781.53;;;2.29;57.09
77871;BME280;67067;46.850;7.578;2023-04-21T01:25:57;94773.88;;;2.34;57.23
77871;BME280;67067;46.850;7.578;2023-04-21T01:27:00;94773.03;;;2.41;57.00
77871;BME280;67067;46.850;7.578;2023-04-21T01:28:05;94771.00;;;2.43;56.82
77871;BME280;67067;46.850;7.578;2023-04-21T01:29:06;94777.41;;;2.47;57.05
77871;BME280;67067;46.850;7.578;2023-04-21T01:30:08;94779.22;;;2.46;56.73
77871;BME280;67067;46.850;7.578;2023-04-21T01:31:10;94780.25;;;2.45;56.81
77871;BME280;67067;46.850;7.578;2023-04-21T01:32:13;94776.97;;;2.50;56.68
77871;BME280;67067;46.850;7.578;2023-04-21T01:33:16;94780.19;;;2.52;56.55
77871;BME280;67067;46.850;7.578;2023-04-21T01:34:17;94777.22;;;2.48;56.99
77871;BME280;67067;46.850;7.578;2023-04-21T01:35:19;94773.03;;;2.41;57.27
77871;BME280;67067;46.850;7.578;2023-04-21T01:36:21;94770.78;;;2.44;57.02
77871;BME280;67067;46.850;7.578;2023-04-21T01:37:27;94771.16;;;2.48;56.70
77871;BME280;67067;46.850;7.578;2023-04-21T01:38:28;94776.78;;;2.51;56.84
77871;BME280;67067;46.850;7.578;2023-04-21T01:39:32;94772.75;;;2.56;56.81
77871;BME280;67067;46.850;7.578;2023-04-21T01:40:34;94772.50;;;2.57;56.72
77871;BME280;67067;46.850;7.578;2023-04-21T01:41:36;94777.97;;;2.56;56.41
77871;BME280;67067;46.850;7.578;2023-04-21T01:42:41;94779.75;;;2.55;56.67
77871;BME280;67067;46.850;7.578;2023-04-21T01:43:43;94783.63;;;2.52;56.63
77871;BME280;67067;46.850;7.578;2023-04-21T01:44:45;94777.38;;;2.53;56.51
77871;BME280;67067;46.850;7.578;2023-04-21T01:45:50;94778.59;;;2.51;56.76
77871;BME280;67067;46.850;7.578;2023-04-21T01:46:52;94772.19;;;2.47;56.90
77871;BME280;67067;46.850;7.578;2023-04-21T01:47:53;94782.22;;;2.50;56.70
77871;BME280;67067;46.850;7.578;2023-04-21T01:48:55;94778.00;;;2.49;56.75
77871;BME280;67067;46.850;7.578;2023-04-21T01:49:56;94781.44;;;2.49;56.62
77871;BME280;67067;46.850;7.578;2023-04-21T01:51:00;94785.25;;;2.47;56.80
77871;BME280;67067;46.850;7.578;2023-04-21T01:52:01;94775.41;;;2.42;57.02
77871;BME280;67067;46.850;7.578;2023-04-21T01:53:03;94775.63;;;2.41;57.02
77871;BME280;67067;46.850;7.578;2023-04-21T01:54:08;94777.00;;;2.43;56.95
77871;BME280;67067;46.850;7.578;2023-04-21T01:55:10;94775.63;;;2.41;57.10
77871;BME280;67067;46.850;7.578;2023-04-21T01:56:13;94781.88;;;2.39;56.97
77871;BME280;67067;46.850;7.578;2023-04-21T01:57:16;94787.19;;;2.26;57.64
77871;BME280;67067;46.850;7.578;2023-04-21T01:58:18;94781.13;;;2.32;57.56
77871;BME280;67067;46.850;7.578;2023-04-21T01:59:19;94781.13;;;2.32;57.53
77871;BME280;67067;46.850;7.578;2023-04-21T02:00:21;94781.28;;;2.37;57.69
77871;BME280;67067;46.850;7.578;2023-04-21T02:01:28;94779.47;;;2.38;57.87
77871;BME280;67067;46.850;7.578;2023-04-21T02:02:30;94787.09;;;2.39;57.82
77871;BME280;67067;46.850;7.578;2023-04-21T02:03:31;94784.25;;;2.41;57.79
77871;BME280;67067;46.850;7.578;2023-04-21T02:04:36;94779.84;;;2.42;57.66
77871;BME280;67067;46.850;7.578;2023-04-21T02:05:39;94777.00;;;2.43;57.78
77871;BME280;67067;46.850;7.578;2023-04-21T02:06:41;94780.03;;;2.47;57.89
77871;BME280;67067;46.850;7.578;2023-04-21T02:07:42;94774.97;;;2.52;57.32
77871;BME280;67067;46.850;7.578;2023-04-21T02:08:47;94781.78;;;2.53;57.51
77871;BME280;67067;46.850;7.578;2023-04-21T02:09:51;94779.75;;;2.55;57.61
77871;BME280;67067;46.850;7.578;2023-04-21T02:10:53;94780.34;;;2.57;57.55
77871;BME280;67067;46.850;7.578;2023-04-21T02:11:54;94767.88;;;2.59;57.62
77871;BME280;67067;46.850;7.578;2023-04-21T02:12:57;94776.88;;;2.63;57.63
77871;BME280;67067;46.850;7.578;2023-04-21T02:13:58;94773.06;;;2.66;57.56
77871;BME280;67067;46.850;7.578;2023-04-21T02:15:00;94769.53;;;2.53;57.75
77871;BME280;67067;46.850;7.578;2023-04-21T02:16:02;94771.66;;;2.63;57.58
77871;BME280;67067;46.850;7.578;2023-04-21T02:17:14;94773.06;;;2.66;57.41
77871;BME280;67067;46.850;7.578;2023-04-21T02:18:16;94772.09;;;2.60;57.79
77871;BME280;67067;46.850;7.578;2023-04-21T02:19:18;94772.75;;;2.56;57.65
77871;BME280;67067;46.850;7.578;2023-04-21T02:20:21;94767.94;;;2.52;57.98
77871;BME280;67067;46.850;7.578;2023-04-21T02:21:22;94772.94;;;2.54;57.89
77871;BME280;67067;46.850;7.578;2023-04-21T02:22:24;94776.94;;;2.57;57.75
77871;BME280;67067;46.850;7.578;2023-04-21T02:23:26;94774.13;;;2.58;57.91
77871;BME280;67067;46.850;7.578;2023-04-21T02:24:28;94772.50;;;2.57;58.02
77871;BME280;67067;46.850;7.578;2023-04-21T02:25:29;94776.97;;;2.50;57.90
77871;BME280;67067;46.850;7.578;2023-04-21T02:26:33;94768.53;;;2.55;57.92
77871;BME280;67067;46.850;7.578;2023-04-21T02:27:35;94768.88;;;2.58;57.82
77871;BME280;67067;46.850;7.578;2023-04-21T02:28:37;94775.28;;;2.62;57.71
77871;BME280;67067;46.850;7.578;2023-04-21T02:29:39;94768.63;;;2.66;57.62
77871;BME280;67067;46.850;7.578;2023-04-21T02:30:41;94771.25;;;2.66;57.62
77871;BME280;67067;46.850;7.578;2023-04-21T02:31:43;94767.63;;;2.67;57.47
77871;BME280;67067;46.850;7.578;2023-04-21T02:33:01;94770.81;;;2.70;57.44
77871;BME280;67067;46.850;7.578;2023-04-21T02:34:02;94762.97;;;2.70;57.63
77871;BME280;67067;46.850;7.578;2023-04-21T02:35:04;94766.00;;;2.66;57.86
77871;BME280;67067;46.850;7.578;2023-04-21T02:36:06;94761.78;;;2.65;57.58
77871;BME280;67067;46.850;7.578;2023-04-21T02:37:10;94758.41;;;2.65;57.79
77871;BME280;67067;46.850;7.578;2023-04-21T02:38:14;94751.56;;;2.64;57.80
77871;BME280;67067;46.850;7.578;2023-04-21T02:39:16;94753.97;;;2.65;57.87
77871;BME280;67067;46.850;7.578;2023-04-21T02:40:18;94757.16;;;2.67;57.62
77871;BME280;67067;46.850;7.578;2023-04-21T02:41:20;94755.19;;;2.63;57.74
77871;BME280;67067;46.850;7.578;2023-04-21T02:42:24;94760.78;;;2.66;57.56
77871;BME280;67067;46.850;7.578;2023-04-21T02:43:26;94759.19;;;2.65;57.75
77871;BME280;67067;46.850;7.578;2023-04-21T02:44:28;94756.56;;;2.65;57.65
77871;BME280;67067;46.850;7.578;2023-04-21T02:45:30;94764.84;;;2.62;57.81
77871;BME280;67067;46.850;7.578;2023-04-21T02:46:32;94765.41;;;2.64;57.55
77871;BME280;67067;46.850;7.578;2023-04-21T02:47:36;94769.63;;;2.65;57.77
77871;BME280;67067;46.850;7.578;2023-04-21T02:48:40;94766.88;;;2.60;57.64
77871;BME280;67067;46.850;7.578;2023-04-21T02:49:42;94759.59;;;2.62;57.72
77871;BME280;67067;46.850;7.578;2023-04-21T02:50:45;94764.41;;;2.65;57.77
77871;BME280;67067;46.850;7.578;2023-04-21T02:51:47;94763.97;;;2.68;57.82
77871;BME280;67067;46.850;7.578;2023-04-21T02:52:48;94763.78;;;2.70;57.57
77871;BME280;67067;46.850;7.578;2023-04-21T02:53:50;94759.94;;;2.73;57.86
77871;BME280;67067;46.850;7.578;2023-04-21T02:54:51;94769.81;;;2.71;57.77
77871;BME280;67067;46.850;7.578;2023-04-21T02:55:53;94769.81;;;2.71;57.81
77871;BME280;67067;46.850;7.578;2023-04-21T02:56:54;94766.75;;;2.74;57.93
77871;BME280;67067;46.850;7.578;2023-04-21T02:57:56;94771.94;;;2.80;57.74
77871;BME280;67067;46.850;7.578;2023-04-21T02:58:58;94766.28;;;2.83;57.50
77871;BME280;67067;46.850;7.578;2023-04-21T03:00:00;94773.94;;;2.85;57.51
77871;BME280;67067;46.850;7.578;2023-04-21T03:01:02;94771.47;;;2.90;57.30
77871;BME280;67067;46.850;7.578;2023-04-21T03:02:04;94765.25;;;2.91;57.30
77871;BME280;67067;46.850;7.578;2023-04-21T03:03:06;94771.91;;;2.87;57.29
77871;BME280;67067;46.850;7.578;2023-04-21T03:04:08;94766.69;;;2.87;57.22
77871;BME280;67067;46.850;7.578;2023-04-21T03:05:12;94771.91;;;2.87;57.54
77871;BME280;67067;46.850;7.578;2023-04-21T03:06:14;94766.88;;;2.86;57.39
77871;BME280;67067;46.850;7.578;2023-04-21T03:07:18;94776.28;;;2.93;57.16
77871;BME280;67067;46.850;7.578;2023-04-21T03:08:19;94767.84;;;2.91;57.35
77871;BME280;67067;46.850;7.578;2023-04-21T03:09:21;94769.44;;;2.92;57.13
77871;BME280;67067;46.850;7.578;2023-04-21T03:10:26;94778.78;;;2.81;57.44
77871;BME280;67067;46.850;7.578;2023-04-21T03:11:29;94776.97;;;2.82;57.38
77871;BME280;67067;46.850;7.578;2023-04-21T03:12:30;94779.94;;;2.86;57.43
77871;BME280;67067;46.850;7.578;2023-04-21T03:13:32;94778.78;;;2.81;57.76
77871;BME280;67067;46.850;7.578;2023-04-21T03:14:33;94782.25;;;2.75;57.84
77871;BME280;67067;46.850;7.578;2023-04-21T03:15:35;94774.59;;;2.74;57.78
77871;BME280;67067;46.850;7.578;2023-04-21T03:16:37;94779.81;;;2.74;57.71
77871;BME280;67067;46.850;7.578;2023-04-21T03:17:39;94778.22;;;2.73;57.81
77871;BME280;67067;46.850;7.578;2023-04-21T03:18:41;94779.81;;;2.74;57.68
77871;BME280;67067;46.850;7.578;2023-04-21T03:19:46;94781.03;;;2.78;57.67
77871;BME280;67067;46.850;7.578;2023-04-21T03:20:47;94783.41;;;2.79;57.82
77871;BME280;67067;46.850;7.578;2023-04-21T03:21:49;94781.19;;;2.83;57.45
77871;BME280;67067;46.850;7.578;2023-04-21T03:22:52;94781.38;;;2.81;57.57
77871;BME280;67067;46.850;7.578;2023-04-21T03:23:53;94780.19;;;2.84;57.66
77871;BME280;67067;46.850;7.578;2023-04-21T03:24:55;94779.16;;;2.85;57.54
77871;BME280;67067;46.850;7.578;2023-04-21T03:25:56;94774.94;;;2.84;57.73
77871;BME280;67067;46.850;7.578;2023-04-21T03:26:58;94774.13;;;2.83;57.41
77871;BME280;67067;46.850;7.578;2023-04-21T03:28:00;94784.38;;;2.85;57.54
77871;BME280;67067;46.850;7.578;2023-04-21T03:29:02;94784.81;;;2.82;57.68
77871;BME280;67067;46.850;7.578;2023-04-21T03:30:04;94786.84;;;2.80;57.76
77871;BME280;67067;46.850;7.578;2023-04-21T03:31:06;94782.38;;;2.87;57.51
77871;BME280;67067;46.850;7.578;2023-04-21T03:32:08;94782.53;;;2.92;57.43
77871;BME280;67067;46.850;7.578;2023-04-21T03:33:10;94775.09;;;2.89;57.20
77871;BME280;67067;46.850;7.578;2023-04-21T03:34:12;94780.34;;;2.89;57.37
77871;BME280;67067;46.850;7.578;2023-04-21T03:35:13;94781.94;;;2.90;57.42
77871;BME280;67067;46.850;7.578;2023-04-21T03:36:15;94779.91;;;2.92;57.42
77871;BME280;67067;46.850;7.578;2023-04-21T03:37:16;94777.50;;;2.91;57.37
77871;BME280;67067;46.850;7.578;2023-04-21T03:38:18;94785.13;;;2.92;56.99
77871;BME280;67067;46.850;7.578;2023-04-21T03:39:19;94775.84;;;2.96;57.00
77871;BME280;67067;46.850;7.578;2023-04-21T03:40:23;94773.81;;;2.99;56.82
77871;BME280;67067;46.850;7.578;2023-04-21T03:41:25;94778.81;;;3.00;56.83
77871;BME280;67067;46.850;7.578;2023-04-21T03:42:27;94778.63;;;3.02;56.83
77871;BME280;67067;46.850;7.578;2023-04-21T03:43:30;94781.81;;;3.04;56.71
77871;BME280;67067;46.850;7.578;2023-04-21T03:44:32;94775.78;;;3.03;56.64
77871;BME280;67067;46.850;7.578;2023-04-21T03:45:36;94780.66;;;3.00;56.76
77871;BME280;67067;46.850;7.578;2023-04-21T03:46:37;94779.06;;;2.99;56.72
77871;BME280;67067;46.850;7.578;2023-04-21T03:47:39;94778.22;;;2.98;56.86
77871;BME280;67067;46.850;7.578;2023-04-21T03:48:41;94777.03;;;3.01;56.89
77871;BME280;67067;46.850;7.578;2023-04-21T03:49:43;94772.41;;;2.96;57.14
77871;BME280;67067;46.850;7.578;2023-04-21T03:50:44;94783.25;;;3.00;57.05
77871;BME280;67067;46.850;7.578;2023-04-21T03:51:46;94773.59;;;3.00;56.97
77871;BME280;67067;46.850;7.578;2023-04-21T03:52:47;94773.00;;;2.98;56.97
77871;BME280;67067;46.850;7.578;2023-04-21T03:53:49;94772.22;;;2.97;57.31
77871;BME280;67067;46.850;7.578;2023-04-21T03:54:51;94777.22;;;2.99;57.29
77871;BME280;67067;46.850;7.578;2023-04-21T03:55:52;94783.47;;;2.98;57.12
77871;BME280;67067;46.850;7.578;2023-04-21T03:56:54;94778.47;;;2.96;56.89
77871;BME280;67067;46.850;7.578;2023-04-21T03:57:56;94780.25;;;2.96;57.18
77871;BME280;67067;46.850;7.578;2023-04-21T03:58:57;94787.53;;;2.94;57.19
77871;BME280;67067;46.850;7.578;2023-04-21T03:59:58;94783.53;;;2.91;57.05
77871;BME280;67067;46.850;7.578;2023-04-21T04:01:00;94783.09;;;2.94;57.32
77871;BME280;67067;46.850;7.578;2023-04-21T04:02:02;94779.47;;;2.95;57.31
77871;BME280;67067;46.850;7.578;2023-04-21T04:03:03;94790.28;;;2.99;57.25
77871;BME280;67067;46.850;7.578;2023-04-21T04:04:05;94780.22;;;3.03;57.20
77871;BME280;67067;46.850;7.578;2023-04-21T04:05:07;94784.44;;;3.04;57.09
77871;BME280;67067;46.850;7.578;2023-04-21T04:06:09;94781.59;;;3.05;57.30
77871;BME280;67067;46.850;7.578;2023-04-21T04:07:10;94787.84;;;3.04;57.28
77871;BME280;67067;46.850;7.578;2023-04-21T04:08:12;94787.06;;;3.04;57.23
77871;BME280;67067;46.850;7.578;2023-04-21T04:09:13;94786.03;;;3.05;57.21
77871;BME280;67067;46.850;7.578;2023-04-21T04:10:15;94780.81;;;3.05;57.45
77871;BME280;67067;46.850;7.578;2023-04-21T04:11:16;94787.63;;;3.06;57.37
77871;BME280;67067;46.850;7.578;2023-04-21T04:12:18;94785.44;;;3.03;57.21
77871;BME280;67067;46.850;7.578;2023-04-21T04:13:20;94784.28;;;2.99;57.23
77871;BME280;67067;46.850;7.578;2023-04-21T04:14:22;94783.47;;;2.98;57.64
77871;BME280;67067;46.850;7.578;2023-04-21T04:15:24;94783.25;;;3.00;57.33
77871;BME280;67067;46.850;7.578;2023-04-21T04:16:26;94784.22;;;3.05;57.36
77871;BME280;67067;46.850;7.578;2023-04-21T04:17:29;94776.16;;;3.07;57.44
77871;BME280;67067;46.850;7.578;2023-04-21T04:18:33;94779.78;;;3.06;57.44
77871;BME280;67067;46.850;7.578;2023-04-21T04:19:34;94778.53;;;3.08;57.19
77871;BME280;67067;46.850;7.578;2023-04-21T04:20:36;94782.41;;;3.06;57.26
77871;BME280;67067;46.850;7.578;2023-04-21T04:21:39;94781.41;;;3.07;57.39
77871;BME280;67067;46.850;7.578;2023-04-21T04:22:41;94775.72;;;3.10;57.21
77871;BME280;67067;46.850;7.578;2023-04-21T04:23:43;94779.22;;;3.04;57.48
77871;BME280;67067;46.850;7.578;2023-04-21T04:24:45;94775.94;;;3.08;57.34
77871;BME280;67067;46.850;7.578;2023-04-21T04:25:48;94785.19;;;3.11;57.28
77871;BME280;67067;46.850;7.578;2023-04-21T04:26:51;94785.59;;;3.08;57.25
77871;BME280;67067;46.850;7.578;2023-04-21T04:27:58;94782.13;;;3.14;57.35
77871;BME280;67067;46.850;7.578;2023-04-21T04:29:00;94788.59;;;3.11;57.40
77871;BME280;67067;46.850;7.578;2023-04-21T04:30:12;94781.53;;;3.12;57.35
77871;BME280;67067;46.850;7.578;2023-04-21T04:32:00;94787.22;;;3.09;57.46
77871;BME280;67067;46.850;7.578;2023-04-21T04:33:06;94797.34;;;2.99;57.38
77871;BME280;67067;46.850;7.578;2023-04-21T04:34:10;94792.72;;;3.01;57.63
77871;BME280;67067;46.850;7.578;2023-04-21T04:35:11;94785.44;;;3.03;57.35
77871;BME280;67067;46.850;7.578;2023-04-21T04:36:13;94788.50;;;3.00;57.44
77871;BME280;67067;46.850;7.578;2023-04-21T04:37:15;94792.91;;;2.99;57.49
77871;BME280;67067;46.850;7.578;2023-04-21T04:38:17;94794.75;;;2.99;57.35
77871;BME280;67067;46.850;7.578;2023-04-21T04:39:18;94795.31;;;3.01;57.31
77871;BME280;67067;46.850;7.578;2023-04-21T04:40:20;94793.06;;;3.04;57.23
77871;BME280;67067;46.850;7.578;2023-04-21T04:41:22;94800.88;;;3.11;57.29
77871;BME280;67067;46.850;7.578;2023-04-21T04:42:26;94799.06;;;3.11;57.13
77871;BME280;67067;46.850;7.578;2023-04-21T04:43:30;94799.91;;;3.05;57.09
77871;BME280;67067;46.850;7.578;2023-04-21T04:44:37;94795.84;;;3.09;57.18
77871;BME280;67067;46.850;7.578;2023-04-21T04:45:39;94797.66;;;3.09;57.22
77871;BME280;67067;46.850;7.578;2023-04-21T04:46:40;94796.25;;;3.06;56.89
77871;BME280;67067;46.850;7.578;2023-04-21T04:47:42;94800.72;;;3.06;57.27
77871;BME280;67067;46.850;7.578;2023-04-21T04:48:43;94791.41;;;3.10;57.25
77871;BME280;67067;46.850;7.578;2023-04-21T04:49:45;94799.66;;;3.14;57.03
77871;BME280;67067;46.850;7.578;2023-04-21T04:50:47;94797.38;;;3.17;56.90
77871;BME280;67067;46.850;7.578;2023-04-21T04:51:49;94802.19;;;3.20;57.19
77871;BME280;67067;46.850;7.578;2023-04-21T04:52:50;94805.81;;;3.19;57.04
77871;BME280;67067;46.850;7.578;2023-04-21T04:53:54;94800.97;;;3.23;56.93
77871;BME280;67067;46.850;7.578;2023-04-21T04:54:56;94806.56;;;3.26;56.75
77871;BME280;67067;46.850;7.578;2023-04-21T04:55:57;94810.78;;;3.27;56.87
77871;BME280;67067;46.850;7.578;2023-04-21T04:56:59;94800.13;;;3.29;56.74
77871;BME280;67067;46.850;7.578;2023-04-21T04:58:01;94796.69;;;3.29;56.92
77871;BME280;67067;46.850;7.578;2023-04-21T04:59:03;94796.34;;;3.25;56.72
77871;BME280;67067;46.850;7.578;2023-04-21T05:00:07;94792.47;;;3.27;56.34
77871;BME280;67067;46.850;7.578;2023-04-21T05:01:20;94796.69;;;3.29;56.37
77871;BME280;67067;46.850;7.578;2023-04-21T05:02:24;94794.06;;;3.29;56.28
77871;BME280;67067;46.850;7.578;2023-04-21T05:03:27;94792.47;;;3.27;56.30
77871;BME280;67067;46.850;7.578;2023-04-21T05:04:28;94798.13;;;3.24;56.60
77871;BME280;67067;46.850;7.578;2023-04-21T05:05:30;94804.22;;;3.18;56.73
77871;BME280;67067;46.850;7.578;2023-04-21T05:06:32;94813.09;;;3.17;56.73
77871;BME280;67067;46.850;7.578;2023-04-21T05:07:34;94812.22;;;3.23;56.52
77871;BME280;67067;46.850;7.578;2023-04-21T05:08:35;94815.84;;;3.22;56.78
77871;BME280;67067;46.850;7.578;2023-04-21T05:09:37;94809.25;;;3.20;56.81
77871;BME280;67067;46.850;7.578;2023-04-21T05:10:38;94815.84;;;3.22;56.58
77871;BME280;67067;46.850;7.578;2023-04-21T05:11:40;94813.41;;;3.27;56.76
77871;BME280;67067;46.850;7.578;2023-04-21T05:12:41;94813.19;;;3.29;56.50
77871;BME280;67067;46.850;7.578;2023-04-21T05:13:43;94814.22;;;3.28;56.27
77871;BME280;67067;46.850;7.578;2023-04-21T05:14:45;94812.38;;;3.29;56.41
77871;BME280;67067;46.850;7.578;2023-04-21T05:15:46;94810.34;;;3.31;56.40
77871;BME280;67067;46.850;7.578;2023-04-21T05:16:48;94805.34;;;3.29;56.52
77871;BME280;67067;46.850;7.578;2023-04-21T05:17:49;94809.31;;;3.32;56.35
77871;BME280;67067;46.850;7.578;2023-04-21T05:18:51;94814.56;;;3.32;56.56
77871;BME280;67067;46.850;7.578;2023-04-21T05:19:54;94806.13;;;3.30;56.70
77871;BME280;67067;46.850;7.578;2023-04-21T05:20:56;94804.19;;;3.25;56.45
77871;BME280;67067;46.850;7.578;2023-04-21T05:21:58;94804.53;;;3.29;56.45
77871;BME280;67067;46.850;7.578;2023-04-21T05:23:01;94802.06;;;3.34;56.57
77871;BME280;67067;46.850;7.578;2023-04-21T05:24:02;94809.28;;;3.38;56.79
77871;BME280;67067;46.850;7.578;2023-04-21T05:25:04;94805.69;;;3.33;56.79
77871;BME280;67067;46.850;7.578;2023-04-21T05:26:06;94802.50;;;3.31;56.75
77871;BME280;67067;46.850;7.578;2023-04-21T05:27:08;94800.25;;;3.34;56.46
77871;BME280;67067;46.850;7.578;2023-04-21T05:28:09;94804.84;;;3.39;56.62
77871;BME280;67067;46.850;7.578;2023-04-21T05:29:11;94798.59;;;3.40;56.44
77871;BME280;67067;46.850;7.578;2023-04-21T05:30:13;94800.19;;;3.41;56.51
77871;BME280;67067;46.850;7.578;2023-04-21T05:31:14;94805.59;;;3.46;56.82
77871;BME280;67067;46.850;7.578;2023-04-21T05:32:16;94803.91;;;3.52;56.34
77871;BME280;67067;46.850;7.578;2023-04-21T05:33:17;94802.53;;;3.49;56.39
77871;BME280;67067;46.850;7.578;2023-04-21T05:34:22;94810.00;;;3.46;56.37
77871;BME280;67067;46.850;7.578;2023-04-21T05:35:31;94810.59;;;3.48;56.59